Du har inga inställningar för hoppväder.nu

Hoppväder.nu

Senast uppdaterat 05:01

UTC-tid

2020-11-26 kl. 04:01


Sol och måne

Solen går upp 8:37 och går ner 14:44 (beräknade cirkatider)
Nästa fullmåne blir om 4 dagar (2020-11-30)


Väderstation: Skydive Mohed

Väderrapport från: 2020-11-02 kl 23:41:47
Vindriktning: 177°
Vinden har varierat mellan 135° och 180° de senaste 10 minuterna.
Vindstyrka: 2 m/s
Byvind: 4,8 m/s
Lufttryck: 1004,0 hPa
Temperatur: 10,4°C, känns som: 8,1°C
Daggpunkt: 6,0°C
Luftfuktighet: 74%
Molnbas: 553 m




METAR

ESSD (Borlänge)
(11 minuter sedan)
ESSD 260350Z AUTO 27005KT 9999 BKN140/// 04/03 Q1006=



ESNN (Sundsvall-Härnösand)
(11 minuter sedan)
ESNN 260350Z AUTO 25004KT 9999 NCD M00/M00 Q1004=












TAF

ESSD (Borlänge)
ESSD



ESNN (Sundsvall-Härnösand)
ESNN





Kodnycklar till TAF och METAR






LHP

(Mohed är område se42e i Delmråde 4)

Prognos är inte uppdaterad






Preliminär prognos